AAL5275 KECP-KCMH
Flight info
| Callsign | AAL5275 |
|---|---|
| Flight time | 1h 40m |
| Altitude | 37000 |
| Route | DCT OTK DCT MCGNS SCRLT2 |
| Aircraft | A319/M-FAA/L |
Departure
| Time | 2026-05-09 00:54 |
|---|---|
| Airport | Northwest Florida Beaches International Airport (KECP) |
Arrival
| Time | 2026-05-09 02:34 |
|---|---|
| Airport | John Glenn Columbus International Airport (KCMH) |
| Time | Latitude | Longitude | Altitude | Speed | Heading |
|---|---|---|---|---|---|
| 2026-05-09 00:36 | 30.34364 | -85.79384 | 62 ft | 0 kts | 65° |
| 2026-05-09 00:39 | 30.34363 | -85.79385 | 69 ft | 0 kts | 341° |
| 2026-05-09 00:51 | 30.34364 | -85.79386 | 69 ft | 2 kts | 340° |
| 2026-05-09 00:51 | 30.34398 | -85.79395 | 64 ft | 0 kts | 356° |
| 2026-05-09 00:51 | 30.34403 | -85.79395 | 65 ft | 2 kts | 359° |
| 2026-05-09 00:51 | 30.34423 | -85.79394 | 67 ft | 6 kts | 356° |
| 2026-05-09 00:52 | 30.34481 | -85.79384 | 65 ft | 10 kts | 34° |
| 2026-05-09 00:52 | 30.34484 | -85.79324 | 67 ft | 8 kts | 144° |
| 2026-05-09 00:52 | 30.34465 | -85.79266 | 64 ft | 9 kts | 75° |
| 2026-05-09 00:52 | 30.34487 | -85.79191 | 68 ft | 11 kts | 70° |
| 2026-05-09 00:53 | 30.34516 | -85.79102 | 67 ft | 13 kts | 69° |
| 2026-05-09 00:53 | 30.34563 | -85.79022 | 67 ft | 12 kts | 15° |
| 2026-05-09 00:53 | 30.34644 | -85.79052 | 64 ft | 13 kts | 339° |
| 2026-05-09 00:53 | 30.34894 | -85.79159 | 64 ft | 76 kts | 339° |
| 2026-05-09 00:54 | 30.35605 | -85.79466 | 74 ft | 139 kts | 340° |
| 2026-05-09 00:54 | 30.36617 | -85.79902 | 396 ft | 164 kts | 339° |
| 2026-05-09 00:54 | 30.37744 | -85.80396 | 910 ft | 183 kts | 341° |
| 2026-05-09 00:54 | 30.38934 | -85.80913 | 1759 ft | 182 kts | 342° |
| 2026-05-09 00:55 | 30.40188 | -85.81457 | 2310 ft | 204 kts | 341° |
| 2026-05-09 00:55 | 30.41606 | -85.82037 | 2745 ft | 227 kts | 341° |
| 2026-05-09 00:55 | 30.43188 | -85.82641 | 3178 ft | 252 kts | 341° |
| 2026-05-09 00:55 | 30.44908 | -85.83272 | 3824 ft | 269 kts | 341° |
| 2026-05-09 00:56 | 30.46747 | -85.83777 | 4763 ft | 277 kts | 355° |
| 2026-05-09 00:56 | 30.48700 | -85.83434 | 5699 ft | 287 kts | 20° |
| 2026-05-09 00:56 | 30.50337 | -85.82129 | 6594 ft | 296 kts | 48° |
| 2026-05-09 00:56 | 30.51318 | -85.80022 | 7449 ft | 302 kts | 77° |
| 2026-05-09 00:57 | 30.51645 | -85.77600 | 8352 ft | 306 kts | 84° |
| 2026-05-09 00:57 | 30.51917 | -85.75131 | 9240 ft | 311 kts | 85° |
| 2026-05-09 00:57 | 30.52192 | -85.72617 | 10085 ft | 317 kts | 85° |
| 2026-05-09 00:57 | 30.52480 | -85.70000 | 10501 ft | 339 kts | 85° |
| 2026-05-09 00:58 | 30.52881 | -85.67214 | 10894 ft | 361 kts | 74° |
| 2026-05-09 00:58 | 30.54020 | -85.64571 | 11565 ft | 371 kts | 52° |
| 2026-05-09 00:58 | 30.55929 | -85.62547 | 12315 ft | 374 kts | 28° |
| 2026-05-09 00:58 | 30.58293 | -85.61391 | 13080 ft | 375 kts | 14° |
| 2026-05-09 00:59 | 30.60790 | -85.60451 | 13871 ft | 381 kts | 13° |
| 2026-05-09 00:59 | 30.63343 | -85.59510 | 14559 ft | 386 kts | 13° |
| 2026-05-09 00:59 | 30.65918 | -85.58564 | 15287 ft | 390 kts | 12° |
| 2026-05-09 00:59 | 30.68518 | -85.57603 | 16010 ft | 393 kts | 12° |
| 2026-05-09 01:00 | 30.71139 | -85.56629 | 16730 ft | 397 kts | 12° |
| 2026-05-09 01:00 | 30.73781 | -85.55643 | 17443 ft | 401 kts | 11° |
| 2026-05-09 01:00 | 30.76452 | -85.54640 | 18140 ft | 406 kts | 11° |
| 2026-05-09 01:00 | 30.79152 | -85.53623 | 18774 ft | 409 kts | 11° |
| 2026-05-09 01:01 | 30.81872 | -85.52597 | 19389 ft | 413 kts | 11° |
| 2026-05-09 01:01 | 30.84618 | -85.51564 | 20000 ft | 416 kts | 11° |
| 2026-05-09 01:01 | 30.87384 | -85.50525 | 20617 ft | 419 kts | 11° |
| 2026-05-09 01:01 | 30.90176 | -85.49475 | 21258 ft | 423 kts | 10° |
| 2026-05-09 01:02 | 30.92981 | -85.48417 | 21884 ft | 425 kts | 11° |
| 2026-05-09 01:02 | 30.95799 | -85.47353 | 22519 ft | 427 kts | 11° |
| 2026-05-09 01:02 | 30.98609 | -85.46294 | 23147 ft | 430 kts | 11° |
| 2026-05-09 01:02 | 31.01464 | -85.45217 | 23735 ft | 432 kts | 11° |
| 2026-05-09 01:03 | 31.04333 | -85.44130 | 24231 ft | 435 kts | 11° |
| 2026-05-09 01:03 | 31.07222 | -85.43033 | 24716 ft | 438 kts | 11° |
| 2026-05-09 01:03 | 31.10135 | -85.41930 | 25191 ft | 441 kts | 11° |
| 2026-05-09 01:03 | 31.13060 | -85.40825 | 25673 ft | 444 kts | 11° |
| 2026-05-09 01:04 | 31.16010 | -85.39709 | 26149 ft | 447 kts | 11° |
| 2026-05-09 01:04 | 31.18980 | -85.38587 | 26661 ft | 449 kts | 11° |
| 2026-05-09 01:04 | 31.21961 | -85.37460 | 27090 ft | 452 kts | 12° |
| 2026-05-09 01:04 | 31.24962 | -85.36323 | 27541 ft | 456 kts | 12° |
| 2026-05-09 01:05 | 31.27997 | -85.35173 | 27978 ft | 459 kts | 12° |
| 2026-05-09 01:05 | 31.31053 | -85.34014 | 28423 ft | 462 kts | 12° |
| 2026-05-09 01:05 | 31.37203 | -85.31675 | 29277 ft | 469 kts | 12° |
| 2026-05-09 01:06 | 31.40329 | -85.30478 | 29716 ft | 473 kts | 12° |
| 2026-05-09 01:06 | 31.43474 | -85.29274 | 30123 ft | 476 kts | 12° |
| 2026-05-09 01:06 | 31.46588 | -85.28086 | 30433 ft | 481 kts | 12° |
| 2026-05-09 01:06 | 31.49823 | -85.26856 | 30739 ft | 485 kts | 12° |
| 2026-05-09 01:07 | 31.53005 | -85.25646 | 31050 ft | 488 kts | 12° |
| 2026-05-09 01:07 | 31.56240 | -85.24412 | 31361 ft | 491 kts | 12° |
| 2026-05-09 01:07 | 31.59502 | -85.23163 | 31667 ft | 494 kts | 11° |
| 2026-05-09 01:07 | 31.62795 | -85.21902 | 32000 ft | 497 kts | 11° |
| 2026-05-09 01:08 | 31.66087 | -85.20639 | 32446 ft | 496 kts | 11° |
| 2026-05-09 01:08 | 31.69363 | -85.19378 | 32877 ft | 496 kts | 11° |
| 2026-05-09 01:08 | 31.72647 | -85.18118 | 33358 ft | 495 kts | 9° |
| 2026-05-09 01:08 | 31.75915 | -85.16868 | 33804 ft | 495 kts | 9° |
| 2026-05-09 01:09 | 31.79194 | -85.15613 | 34232 ft | 494 kts | 9° |
| 2026-05-09 01:09 | 31.82448 | -85.14365 | 34618 ft | 494 kts | 9° |
| 2026-05-09 01:09 | 31.85727 | -85.13108 | 35006 ft | 494 kts | 9° |
| 2026-05-09 01:09 | 31.89000 | -85.11850 | 35403 ft | 493 kts | 8° |
| 2026-05-09 01:10 | 31.92265 | -85.10592 | 35786 ft | 493 kts | 8° |
| 2026-05-09 01:10 | 31.95477 | -85.09351 | 36162 ft | 492 kts | 8° |
| 2026-05-09 01:10 | 31.98734 | -85.08090 | 36562 ft | 492 kts | 8° |
| 2026-05-09 01:10 | 32.01983 | -85.06835 | 36892 ft | 492 kts | 8° |
| 2026-05-09 01:11 | 32.05240 | -85.05580 | 37018 ft | 492 kts | 8° |
| 2026-05-09 01:11 | 32.11732 | -85.03072 | 37035 ft | 489 kts | 7° |
| 2026-05-09 01:12 | 32.18201 | -85.00559 | 36992 ft | 488 kts | 7° |
| 2026-05-09 01:12 | 32.24653 | -84.98049 | 36980 ft | 488 kts | 7° |
| 2026-05-09 01:13 | 32.31075 | -84.95563 | 36981 ft | 488 kts | 7° |
| 2026-05-09 01:13 | 32.37529 | -84.93056 | 37029 ft | 488 kts | 7° |
| 2026-05-09 01:14 | 32.43994 | -84.90540 | 37017 ft | 489 kts | 7° |
| 2026-05-09 01:14 | 32.50453 | -84.88024 | 37022 ft | 489 kts | 7° |
| 2026-05-09 01:15 | 32.56905 | -84.85498 | 37031 ft | 488 kts | 7° |
| 2026-05-09 01:15 | 32.63357 | -84.82968 | 37028 ft | 488 kts | 7° |
| 2026-05-09 01:16 | 32.69761 | -84.80462 | 37041 ft | 488 kts | 7° |
| 2026-05-09 01:16 | 32.76203 | -84.77941 | 37041 ft | 488 kts | 7° |
| 2026-05-09 01:17 | 32.85880 | -84.74125 | 37036 ft | 489 kts | 7° |
| 2026-05-09 01:17 | 32.92358 | -84.71575 | 37029 ft | 490 kts | 7° |
| 2026-05-09 01:18 | 32.98829 | -84.69032 | 37029 ft | 491 kts | 7° |
| 2026-05-09 01:18 | 33.05299 | -84.66472 | 37064 ft | 491 kts | 7° |
| 2026-05-09 01:19 | 33.11800 | -84.63891 | 37059 ft | 491 kts | 7° |
| 2026-05-09 01:19 | 33.18278 | -84.61318 | 37065 ft | 490 kts | 7° |
| 2026-05-09 01:20 | 33.23666 | -84.59182 | 37066 ft | 490 kts | 7° |
| 2026-05-09 01:20 | 33.31199 | -84.56190 | 37065 ft | 490 kts | 7° |
| 2026-05-09 01:21 | 33.36581 | -84.54044 | 37063 ft | 490 kts | 7° |
| 2026-05-09 01:21 | 33.43042 | -84.51469 | 37063 ft | 490 kts | 7° |
| 2026-05-09 01:22 | 33.49512 | -84.48883 | 37056 ft | 490 kts | 7° |
| 2026-05-09 01:22 | 33.55984 | -84.46293 | 37062 ft | 490 kts | 7° |
| 2026-05-09 01:23 | 33.62465 | -84.43693 | 37046 ft | 492 kts | 7° |
| 2026-05-09 01:23 | 33.68961 | -84.41120 | 37021 ft | 493 kts | 6° |
| 2026-05-09 01:24 | 33.75517 | -84.38545 | 37010 ft | 495 kts | 6° |
| 2026-05-09 01:24 | 33.82091 | -84.35970 | 37025 ft | 497 kts | 6° |
| 2026-05-09 01:25 | 33.88688 | -84.33322 | 37030 ft | 500 kts | 6° |
| 2026-05-09 01:25 | 33.95262 | -84.30653 | 37024 ft | 502 kts | 6° |
| 2026-05-09 01:26 | 34.01898 | -84.27970 | 37037 ft | 502 kts | 6° |
| 2026-05-09 01:26 | 34.08514 | -84.25316 | 37071 ft | 501 kts | 6° |
| 2026-05-09 01:27 | 34.15144 | -84.22566 | 37033 ft | 503 kts | 6° |
| 2026-05-09 01:27 | 34.21772 | -84.19792 | 37020 ft | 504 kts | 6° |
| 2026-05-09 01:28 | 34.28409 | -84.17018 | 37020 ft | 504 kts | 6° |
| 2026-05-09 01:28 | 34.35040 | -84.14247 | 37066 ft | 506 kts | 6° |
| 2026-05-09 01:29 | 34.41694 | -84.11353 | 37029 ft | 508 kts | 6° |
| 2026-05-09 01:29 | 34.48349 | -84.08446 | 37016 ft | 509 kts | 6° |
| 2026-05-09 01:30 | 34.55003 | -84.05544 | 37024 ft | 510 kts | 6° |
| 2026-05-09 01:30 | 34.61672 | -84.02629 | 37059 ft | 511 kts | 6° |
| 2026-05-09 01:31 | 34.68366 | -83.99654 | 37050 ft | 511 kts | 6° |
| 2026-05-09 01:31 | 34.75052 | -83.96685 | 37051 ft | 512 kts | 6° |
| 2026-05-09 01:32 | 34.81732 | -83.93716 | 37055 ft | 511 kts | 6° |
| 2026-05-09 01:32 | 34.88418 | -83.90736 | 37049 ft | 510 kts | 6° |
| 2026-05-09 01:33 | 34.95069 | -83.87740 | 37042 ft | 509 kts | 6° |
| 2026-05-09 01:33 | 35.01722 | -83.84738 | 37027 ft | 509 kts | 6° |
| 2026-05-09 01:34 | 35.08336 | -83.81752 | 37032 ft | 510 kts | 6° |
| 2026-05-09 01:34 | 35.14988 | -83.78757 | 37062 ft | 509 kts | 6° |
| 2026-05-09 01:35 | 35.21629 | -83.75767 | 37066 ft | 509 kts | 6° |
| 2026-05-09 01:35 | 35.28269 | -83.72766 | 37061 ft | 508 kts | 6° |
| 2026-05-09 01:36 | 35.34901 | -83.69775 | 37091 ft | 508 kts | 6° |
| 2026-05-09 01:36 | 35.41520 | -83.66784 | 37054 ft | 507 kts | 6° |
| 2026-05-09 01:37 | 35.48134 | -83.63808 | 37036 ft | 506 kts | 6° |
| 2026-05-09 01:37 | 35.54753 | -83.60836 | 37020 ft | 506 kts | 6° |
| 2026-05-09 01:38 | 35.61367 | -83.57860 | 37005 ft | 504 kts | 6° |
| 2026-05-09 01:38 | 35.67920 | -83.54909 | 36990 ft | 501 kts | 5° |
| 2026-05-09 01:39 | 35.74436 | -83.51978 | 36979 ft | 502 kts | 5° |
| 2026-05-09 01:39 | 35.81004 | -83.49012 | 36985 ft | 503 kts | 5° |
| 2026-05-09 01:40 | 35.87578 | -83.46046 | 36971 ft | 503 kts | 5° |
| 2026-05-09 01:40 | 35.94152 | -83.43081 | 36982 ft | 503 kts | 5° |
| 2026-05-09 01:41 | 36.00735 | -83.40113 | 36997 ft | 503 kts | 5° |
| 2026-05-09 01:41 | 36.07308 | -83.37154 | 37063 ft | 503 kts | 5° |
| 2026-05-09 01:42 | 36.13891 | -83.34183 | 37050 ft | 503 kts | 5° |
| 2026-05-09 01:42 | 36.20457 | -83.31219 | 37039 ft | 502 kts | 5° |
| 2026-05-09 01:43 | 36.27026 | -83.28253 | 37022 ft | 502 kts | 5° |
| 2026-05-09 01:43 | 36.33595 | -83.25286 | 37019 ft | 502 kts | 5° |
| 2026-05-09 01:44 | 36.40145 | -83.22320 | 36984 ft | 501 kts | 5° |
| 2026-05-09 01:44 | 36.46651 | -83.19374 | 36964 ft | 501 kts | 5° |
| 2026-05-09 01:45 | 36.53199 | -83.16412 | 36958 ft | 501 kts | 5° |
| 2026-05-09 01:45 | 36.59754 | -83.13433 | 37002 ft | 501 kts | 5° |
| 2026-05-09 01:46 | 36.66302 | -83.10441 | 36990 ft | 501 kts | 5° |
| 2026-05-09 01:46 | 36.72853 | -83.07448 | 36986 ft | 501 kts | 5° |
| 2026-05-09 01:47 | 36.79400 | -83.04466 | 37025 ft | 500 kts | 5° |
| 2026-05-09 01:47 | 36.85939 | -83.01493 | 36973 ft | 499 kts | 5° |
| 2026-05-09 01:48 | 36.92476 | -82.98522 | 36964 ft | 500 kts | 5° |
| 2026-05-09 01:48 | 36.99021 | -82.95562 | 36970 ft | 500 kts | 5° |
| 2026-05-09 01:49 | 37.05568 | -82.92603 | 36989 ft | 500 kts | 5° |
| 2026-05-09 01:49 | 37.12107 | -82.89686 | 36979 ft | 499 kts | 5° |
| 2026-05-09 01:50 | 37.18643 | -82.86760 | 36965 ft | 499 kts | 5° |
| 2026-05-09 01:50 | 37.25185 | -82.83841 | 36956 ft | 499 kts | 5° |
| 2026-05-09 01:51 | 37.31735 | -82.80934 | 36986 ft | 499 kts | 5° |
| 2026-05-09 01:51 | 37.38273 | -82.78034 | 36971 ft | 498 kts | 5° |
| 2026-05-09 01:52 | 37.44770 | -82.75143 | 36978 ft | 498 kts | 5° |
| 2026-05-09 01:52 | 37.51297 | -82.72228 | 37002 ft | 498 kts | 5° |
| 2026-05-09 01:53 | 37.57794 | -82.69318 | 36533 ft | 494 kts | 5° |
| 2026-05-09 01:53 | 37.61032 | -82.67864 | 35953 ft | 493 kts | 5° |
| 2026-05-09 01:53 | 37.64273 | -82.66411 | 35326 ft | 494 kts | 5° |
| 2026-05-09 01:54 | 37.67532 | -82.64952 | 34666 ft | 496 kts | 5° |
| 2026-05-09 01:54 | 37.70785 | -82.63502 | 34070 ft | 496 kts | 5° |
| 2026-05-09 01:54 | 37.74032 | -82.62057 | 33602 ft | 491 kts | 5° |
| 2026-05-09 01:54 | 37.77243 | -82.60656 | 33156 ft | 484 kts | 5° |
| 2026-05-09 01:55 | 37.80410 | -82.59297 | 32726 ft | 477 kts | 5° |
| 2026-05-09 01:55 | 37.83538 | -82.57981 | 32275 ft | 471 kts | 5° |
| 2026-05-09 01:55 | 37.86634 | -82.56705 | 31839 ft | 465 kts | 5° |
| 2026-05-09 01:55 | 37.89691 | -82.55475 | 31429 ft | 458 kts | 5° |
| 2026-05-09 01:56 | 37.92724 | -82.54274 | 31051 ft | 452 kts | 5° |
| 2026-05-09 01:56 | 37.95721 | -82.53109 | 30959 ft | 449 kts | 5° |
| 2026-05-09 01:56 | 38.01692 | -82.50852 | 30930 ft | 447 kts | 5° |
| 2026-05-09 01:57 | 38.04569 | -82.49757 | 30571 ft | 444 kts | 5° |
| 2026-05-09 01:57 | 38.07513 | -82.48667 | 30161 ft | 438 kts | 5° |
| 2026-05-09 01:57 | 38.10417 | -82.47469 | 29687 ft | 444 kts | 14° |
| 2026-05-09 01:57 | 38.13131 | -82.45495 | 29214 ft | 451 kts | 23° |
| 2026-05-09 01:58 | 38.15758 | -82.43345 | 28726 ft | 448 kts | 24° |
| 2026-05-09 01:58 | 38.18324 | -82.41216 | 28265 ft | 444 kts | 24° |
| 2026-05-09 01:58 | 38.20902 | -82.39065 | 27821 ft | 439 kts | 25° |
| 2026-05-09 01:58 | 38.23440 | -82.36943 | 27413 ft | 435 kts | 25° |
| 2026-05-09 01:59 | 38.25958 | -82.34837 | 26995 ft | 431 kts | 25° |
| 2026-05-09 01:59 | 38.28457 | -82.32748 | 26587 ft | 427 kts | 25° |
| 2026-05-09 01:59 | 38.30931 | -82.30684 | 26201 ft | 423 kts | 25° |
| 2026-05-09 01:59 | 38.33383 | -82.28642 | 25829 ft | 419 kts | 25° |
| 2026-05-09 02:00 | 38.35819 | -82.26614 | 25454 ft | 415 kts | 25° |
| 2026-05-09 02:00 | 38.38225 | -82.24613 | 25084 ft | 412 kts | 26° |
| 2026-05-09 02:00 | 38.40613 | -82.22624 | 24735 ft | 408 kts | 26° |
| 2026-05-09 02:00 | 38.42986 | -82.20647 | 24324 ft | 405 kts | 25° |
| 2026-05-09 02:01 | 38.45433 | -82.18973 | 23940 ft | 394 kts | 16° |
| 2026-05-09 02:01 | 38.47971 | -82.17817 | 23567 ft | 383 kts | 7° |
| 2026-05-09 02:01 | 38.50514 | -82.17160 | 23118 ft | 373 kts | 359° |
| 2026-05-09 02:01 | 38.53071 | -82.16955 | 22656 ft | 363 kts | 352° |
| 2026-05-09 02:02 | 38.55558 | -82.17189 | 22183 ft | 354 kts | 344° |
| 2026-05-09 02:02 | 38.57992 | -82.17655 | 21729 ft | 352 kts | 344° |
| 2026-05-09 02:02 | 38.60404 | -82.18108 | 21298 ft | 350 kts | 344° |
| 2026-05-09 02:02 | 38.62809 | -82.18555 | 20861 ft | 348 kts | 345° |
| 2026-05-09 02:03 | 38.65193 | -82.18996 | 20468 ft | 346 kts | 344° |
| 2026-05-09 02:03 | 38.67572 | -82.19438 | 20081 ft | 344 kts | 345° |
| 2026-05-09 02:03 | 38.69934 | -82.19880 | 19662 ft | 342 kts | 345° |
| 2026-05-09 02:03 | 38.72283 | -82.20319 | 19376 ft | 341 kts | 345° |
| 2026-05-09 02:04 | 38.74631 | -82.20756 | 19135 ft | 341 kts | 345° |
| 2026-05-09 02:04 | 38.76186 | -82.21046 | 18978 ft | 340 kts | 345° |
| 2026-05-09 02:04 | 38.78524 | -82.21480 | 18740 ft | 339 kts | 345° |
| 2026-05-09 02:04 | 38.80855 | -82.21914 | 18507 ft | 338 kts | 345° |
| 2026-05-09 02:05 | 38.83183 | -82.22350 | 18275 ft | 337 kts | 345° |
| 2026-05-09 02:05 | 38.85498 | -82.22786 | 18019 ft | 335 kts | 345° |
| 2026-05-09 02:05 | 38.87797 | -82.23220 | 17773 ft | 334 kts | 344° |
| 2026-05-09 02:05 | 38.90087 | -82.23654 | 17508 ft | 332 kts | 344° |
| 2026-05-09 02:06 | 38.92363 | -82.24082 | 17239 ft | 330 kts | 344° |
| 2026-05-09 02:06 | 38.94634 | -82.24506 | 16978 ft | 329 kts | 345° |
| 2026-05-09 02:06 | 38.96895 | -82.24929 | 16717 ft | 327 kts | 345° |
| 2026-05-09 02:07 | 39.01376 | -82.25773 | 16201 ft | 324 kts | 344° |
| 2026-05-09 02:07 | 39.03602 | -82.26197 | 15942 ft | 323 kts | 344° |
| 2026-05-09 02:07 | 39.05819 | -82.26618 | 15700 ft | 321 kts | 344° |
| 2026-05-09 02:07 | 39.08029 | -82.27037 | 15454 ft | 320 kts | 344° |
| 2026-05-09 02:08 | 39.10227 | -82.27456 | 15223 ft | 319 kts | 344° |
| 2026-05-09 02:08 | 39.12415 | -82.27874 | 14980 ft | 318 kts | 344° |
| 2026-05-09 02:08 | 39.14599 | -82.28289 | 14736 ft | 317 kts | 344° |
| 2026-05-09 02:08 | 39.16779 | -82.28702 | 14494 ft | 315 kts | 344° |
| 2026-05-09 02:09 | 39.18919 | -82.29105 | 14257 ft | 314 kts | 344° |
| 2026-05-09 02:09 | 39.21084 | -82.29514 | 14017 ft | 313 kts | 345° |
| 2026-05-09 02:09 | 39.23231 | -82.29921 | 13778 ft | 311 kts | 345° |
| 2026-05-09 02:09 | 39.25372 | -82.30325 | 13521 ft | 310 kts | 344° |
| 2026-05-09 02:10 | 39.27516 | -82.30731 | 13253 ft | 310 kts | 344° |
| 2026-05-09 02:10 | 39.29650 | -82.31137 | 12987 ft | 310 kts | 344° |
| 2026-05-09 02:10 | 39.31783 | -82.31541 | 12724 ft | 309 kts | 345° |
| 2026-05-09 02:10 | 39.33905 | -82.31942 | 12489 ft | 308 kts | 345° |
| 2026-05-09 02:11 | 39.36005 | -82.32339 | 12212 ft | 303 kts | 345° |
| 2026-05-09 02:11 | 39.38084 | -82.32736 | 11834 ft | 301 kts | 345° |
| 2026-05-09 02:11 | 39.40148 | -82.33135 | 11439 ft | 300 kts | 345° |
| 2026-05-09 02:11 | 39.42217 | -82.33534 | 11040 ft | 300 kts | 345° |
| 2026-05-09 02:12 | 39.44278 | -82.33927 | 10646 ft | 299 kts | 345° |
| 2026-05-09 02:12 | 39.46329 | -82.34318 | 10255 ft | 298 kts | 345° |
| 2026-05-09 02:12 | 39.48339 | -82.34703 | 10015 ft | 292 kts | 344° |
| 2026-05-09 02:12 | 39.50237 | -82.35386 | 9943 ft | 277 kts | 330° |
| 2026-05-09 02:13 | 39.51910 | -82.36593 | 9778 ft | 272 kts | 318° |
| 2026-05-09 02:13 | 39.53438 | -82.38030 | 9548 ft | 271 kts | 317° |
| 2026-05-09 02:13 | 39.54963 | -82.39470 | 9335 ft | 271 kts | 318° |
| 2026-05-09 02:13 | 39.56479 | -82.40907 | 9126 ft | 268 kts | 317° |
| 2026-05-09 02:14 | 39.57984 | -82.42330 | 8906 ft | 267 kts | 317° |
| 2026-05-09 02:14 | 39.59486 | -82.43751 | 8695 ft | 267 kts | 317° |
| 2026-05-09 02:14 | 39.60986 | -82.45174 | 8481 ft | 268 kts | 317° |
| 2026-05-09 02:14 | 39.62492 | -82.46601 | 8271 ft | 268 kts | 318° |
| 2026-05-09 02:15 | 39.64000 | -82.48028 | 8054 ft | 269 kts | 318° |
| 2026-05-09 02:15 | 39.65512 | -82.49458 | 7840 ft | 269 kts | 318° |
| 2026-05-09 02:15 | 39.67026 | -82.50890 | 7659 ft | 269 kts | 318° |
| 2026-05-09 02:15 | 39.68536 | -82.52321 | 7447 ft | 269 kts | 318° |
| 2026-05-09 02:16 | 39.70052 | -82.53760 | 7240 ft | 269 kts | 318° |
| 2026-05-09 02:16 | 39.71563 | -82.55197 | 7027 ft | 270 kts | 318° |
| 2026-05-09 02:16 | 39.73107 | -82.56607 | 6814 ft | 271 kts | 320° |
| 2026-05-09 02:16 | 39.74670 | -82.57981 | 6601 ft | 272 kts | 321° |
| 2026-05-09 02:17 | 39.76244 | -82.59349 | 6390 ft | 272 kts | 321° |
| 2026-05-09 02:17 | 39.77819 | -82.60715 | 6161 ft | 272 kts | 321° |
| 2026-05-09 02:17 | 39.79390 | -82.62081 | 5944 ft | 272 kts | 321° |
| 2026-05-09 02:17 | 39.81037 | -82.63309 | 5725 ft | 277 kts | 332° |
| 2026-05-09 02:18 | 39.82919 | -82.63930 | 5499 ft | 283 kts | 349° |
| 2026-05-09 02:18 | 39.84849 | -82.64108 | 5363 ft | 272 kts | 352° |
| 2026-05-09 02:18 | 39.86692 | -82.64274 | 5231 ft | 260 kts | 351° |
| 2026-05-09 02:18 | 39.88470 | -82.64475 | 4852 ft | 259 kts | 349° |
| 2026-05-09 02:19 | 39.90210 | -82.64712 | 4758 ft | 246 kts | 348° |
| 2026-05-09 02:19 | 39.91884 | -82.64966 | 4591 ft | 239 kts | 348° |
| 2026-05-09 02:19 | 39.93572 | -82.65245 | 4053 ft | 249 kts | 348° |
| 2026-05-09 02:19 | 39.95313 | -82.65560 | 3572 ft | 253 kts | 345° |
| 2026-05-09 02:20 | 39.96842 | -82.66499 | 3282 ft | 239 kts | 315° |
| 2026-05-09 02:20 | 39.97818 | -82.68174 | 3027 ft | 227 kts | 290° |
| 2026-05-09 02:20 | 39.98165 | -82.70082 | 2993 ft | 209 kts | 272° |
| 2026-05-09 02:20 | 39.98270 | -82.71907 | 3000 ft | 194 kts | 272° |
| 2026-05-09 02:21 | 39.98370 | -82.73602 | 2852 ft | 181 kts | 271° |
| 2026-05-09 02:21 | 39.98463 | -82.75185 | 2652 ft | 169 kts | 272° |
| 2026-05-09 02:21 | 39.98549 | -82.76672 | 2444 ft | 161 kts | 272° |
| 2026-05-09 02:21 | 39.98631 | -82.78089 | 2233 ft | 151 kts | 272° |
| 2026-05-09 02:22 | 39.98708 | -82.79423 | 2043 ft | 144 kts | 273° |
| 2026-05-09 02:22 | 39.98782 | -82.80716 | 1862 ft | 142 kts | 273° |
| 2026-05-09 02:22 | 39.98856 | -82.82006 | 1666 ft | 143 kts | 274° |
| 2026-05-09 02:22 | 39.98930 | -82.83287 | 1474 ft | 144 kts | 275° |
| 2026-05-09 02:23 | 39.99005 | -82.84594 | 1280 ft | 145 kts | 276° |
| 2026-05-09 02:23 | 39.99081 | -82.85911 | 1095 ft | 144 kts | 277° |
| 2026-05-09 02:23 | 39.99146 | -82.87178 | 923 ft | 138 kts | 277° |
| 2026-05-09 02:23 | 39.99213 | -82.88448 | 1170 ft | 148 kts | 276° |
| 2026-05-09 02:24 | 39.99207 | -82.89833 | 1724 ft | 157 kts | 259° |
| 2026-05-09 02:24 | 39.98753 | -82.91092 | 2313 ft | 155 kts | 234° |
| 2026-05-09 02:24 | 39.98187 | -82.92347 | 2807 ft | 172 kts | 246° |
| 2026-05-09 02:24 | 39.97480 | -82.93708 | 3192 ft | 193 kts | 222° |
| 2026-05-09 02:25 | 39.96296 | -82.94579 | 3802 ft | 205 kts | 196° |
| 2026-05-09 02:25 | 39.94828 | -82.94576 | 3981 ft | 217 kts | 175° |
| 2026-05-09 02:25 | 39.93332 | -82.94233 | 4004 ft | 219 kts | 173° |
| 2026-05-09 02:25 | 39.91838 | -82.93851 | 4007 ft | 218 kts | 174° |
| 2026-05-09 02:26 | 39.90365 | -82.93960 | 4008 ft | 212 kts | 201° |
| 2026-05-09 02:26 | 39.88946 | -82.94475 | 4003 ft | 215 kts | 185° |
| 2026-05-09 02:26 | 39.87505 | -82.94016 | 4010 ft | 224 kts | 153° |
| 2026-05-09 02:26 | 39.86438 | -82.92503 | 4009 ft | 235 kts | 119° |
| 2026-05-09 02:27 | 39.86151 | -82.90396 | 4009 ft | 244 kts | 85° |
| 2026-05-09 02:27 | 39.86555 | -82.88238 | 4005 ft | 246 kts | 74° |
| 2026-05-09 02:27 | 39.87092 | -82.86116 | 4006 ft | 247 kts | 73° |
| 2026-05-09 02:27 | 39.87646 | -82.84006 | 4009 ft | 247 kts | 72° |
| 2026-05-09 02:28 | 39.88205 | -82.81896 | 4009 ft | 247 kts | 72° |
| 2026-05-09 02:28 | 39.88765 | -82.79789 | 4003 ft | 247 kts | 72° |
| 2026-05-09 02:28 | 39.89328 | -82.77678 | 3997 ft | 247 kts | 72° |
| 2026-05-09 02:28 | 39.89894 | -82.75540 | 4006 ft | 249 kts | 72° |
| 2026-05-09 02:29 | 39.90455 | -82.73409 | 4005 ft | 249 kts | 72° |
| 2026-05-09 02:29 | 39.91015 | -82.71279 | 4020 ft | 249 kts | 72° |
| 2026-05-09 02:29 | 39.91578 | -82.69144 | 4022 ft | 249 kts | 72° |
| 2026-05-09 02:29 | 39.92188 | -82.67029 | 4011 ft | 250 kts | 63° |
| 2026-05-09 02:30 | 39.93356 | -82.65394 | 4014 ft | 248 kts | 29° |
| 2026-05-09 02:30 | 39.94966 | -82.64759 | 3953 ft | 240 kts | 359° |
| 2026-05-09 02:30 | 39.96627 | -82.64769 | 3641 ft | 237 kts | 353° |
| 2026-05-09 02:30 | 39.98205 | -82.65198 | 3343 ft | 228 kts | 327° |
| 2026-05-09 02:31 | 39.99304 | -82.66566 | 3109 ft | 214 kts | 294° |
| 2026-05-09 02:31 | 39.99383 | -82.68411 | 3239 ft | 209 kts | 253° |
| 2026-05-09 02:31 | 39.98974 | -82.70247 | 3165 ft | 211 kts | 251° |
| 2026-05-09 02:31 | 39.98551 | -82.72071 | 3016 ft | 210 kts | 252° |
| 2026-05-09 02:32 | 39.98309 | -82.73958 | 2843 ft | 214 kts | 271° |
| 2026-05-09 02:32 | 39.98472 | -82.75848 | 2567 ft | 211 kts | 274° |
| 2026-05-09 02:32 | 39.98604 | -82.77721 | 2297 ft | 205 kts | 273° |
| 2026-05-09 02:32 | 39.98715 | -82.79568 | 2027 ft | 203 kts | 274° |
| 2026-05-09 02:33 | 39.98819 | -82.81355 | 1760 ft | 191 kts | 274° |
| 2026-05-09 02:33 | 39.98915 | -82.83022 | 1513 ft | 177 kts | 275° |
| 2026-05-09 02:33 | 39.99000 | -82.84518 | 1287 ft | 156 kts | 276° |
| 2026-05-09 02:33 | 39.99078 | -82.85876 | 1086 ft | 146 kts | 277° |
| 2026-05-09 02:34 | 39.99149 | -82.87173 | 904 ft | 143 kts | 277° |
| 2026-05-09 02:34 | 39.99219 | -82.88415 | 823 ft | 123 kts | 275° |
| 2026-05-09 02:34 | 39.99264 | -82.89103 | 823 ft | 24 kts | 272° |
| 2026-05-09 02:34 | 39.99277 | -82.89333 | 820 ft | 31 kts | 276° |
| 2026-05-09 02:35 | 39.99345 | -82.89574 | 824 ft | 25 kts | 302° |
| 2026-05-09 02:35 | 39.99396 | -82.89670 | 823 ft | 5 kts | 310° |
| 2026-05-09 02:35 | 39.99436 | -82.89687 | 823 ft | 8 kts | 5° |
| 2026-05-09 02:35 | 39.99470 | -82.89619 | 824 ft | 12 kts | 91° |
| 2026-05-09 02:36 | 39.99463 | -82.89501 | 825 ft | 14 kts | 95° |
| 2026-05-09 02:36 | 39.99455 | -82.89367 | 826 ft | 15 kts | 95° |
| 2026-05-09 02:36 | 39.99447 | -82.89229 | 824 ft | 15 kts | 95° |
| 2026-05-09 02:36 | 39.99440 | -82.89092 | 818 ft | 15 kts | 95° |
| 2026-05-09 02:37 | 39.99432 | -82.88968 | 822 ft | 13 kts | 94° |
| 2026-05-09 02:37 | 39.99425 | -82.88847 | 818 ft | 15 kts | 94° |
| 2026-05-09 02:37 | 39.99416 | -82.88680 | 819 ft | 21 kts | 94° |
| 2026-05-09 02:37 | 39.99404 | -82.88468 | 820 ft | 25 kts | 94° |
| 2026-05-09 02:38 | 39.99456 | -82.88325 | 820 ft | 20 kts | 10° |
| 2026-05-09 02:38 | 39.99602 | -82.88309 | 818 ft | 20 kts | 8° |
| 2026-05-09 02:38 | 39.99636 | -82.88184 | 819 ft | 16 kts | 83° |
| 2026-05-09 02:38 | 39.99660 | -82.88094 | 821 ft | 7 kts | 11° |
| 2026-05-09 02:39 | 39.99679 | -82.88080 | 821 ft | 4 kts | 45° |
| 2026-05-09 02:39 | 39.99677 | -82.88083 | 821 ft | 2 kts | 62° |
| 2026-05-09 02:39 | 39.99671 | -82.88097 | 821 ft | 5 kts | 58° |
| 2026-05-09 02:39 | 39.99676 | -82.88086 | 821 ft | 0 kts | 59° |